sensor_id;sensor_type;location;lat;lon;timestamp;temperature;humidity
9881;DHT22;4979;51.014;6.678;2023-02-01T00:01:26;6.30;99.90
9881;DHT22;4979;51.014;6.678;2023-02-01T00:03:52;6.40;99.90
9881;DHT22;4979;51.014;6.678;2023-02-01T00:06:18;6.40;99.90
9881;DHT22;4979;51.014;6.678;2023-02-01T00:08:43;6.30;99.90
9881;DHT22;4979;51.014;6.678;2023-02-01T00:11:11;6.30;99.90
9881;DHT22;4979;51.014;6.678;2023-02-01T00:13:39;6.30;99.90
9881;DHT22;4979;51.014;6.678;2023-02-01T00:16:17;6.40;99.90
9881;DHT22;4979;51.014;6.678;2023-02-01T00:18:44;6.30;99.90
9881;DHT22;4979;51.014;6.678;2023-02-01T00:21:14;6.20;99.90
9881;DHT22;4979;51.014;6.678;2023-02-01T00:23:40;6.30;99.90
9881;DHT22;4979;51.014;6.678;2023-02-01T00:26:10;6.30;99.90
9881;DHT22;4979;51.014;6.678;2023-02-01T00:28:38;6.20;99.90
9881;DHT22;4979;51.014;6.678;2023-02-01T00:31:04;6.20;99.90
9881;DHT22;4979;51.014;6.678;2023-02-01T00:33:31;6.20;99.90
9881;DHT22;4979;51.014;6.678;2023-02-01T00:36:01;6.10;99.90
9881;DHT22;4979;51.014;6.678;2023-02-01T00:38:28;6.20;99.90
9881;DHT22;4979;51.014;6.678;2023-02-01T00:41:01;6.10;99.90
9881;DHT22;4979;51.014;6.678;2023-02-01T00:43:26;6.10;99.90
9881;DHT22;4979;51.014;6.678;2023-02-01T00:45:52;6.10;99.90
9881;DHT22;4979;51.014;6.678;2023-02-01T00:48:17;6.00;99.90
9881;DHT22;4979;51.014;6.678;2023-02-01T00:50:43;6.00;99.90
9881;DHT22;4979;51.014;6.678;2023-02-01T00:53:09;6.00;99.90
9881;DHT22;4979;51.014;6.678;2023-02-01T00:55:35;6.00;99.90
9881;DHT22;4979;51.014;6.678;2023-02-01T00:58:01;6.00;99.90
9881;DHT22;4979;51.014;6.678;2023-02-01T01:00:26;5.90;99.90
9881;DHT22;4979;51.014;6.678;2023-02-01T01:02:52;5.90;99.90
9881;DHT22;4979;51.014;6.678;2023-02-01T01:05:17;6.00;99.90
9881;DHT22;4979;51.014;6.678;2023-02-01T01:07:43;6.00;99.90
9881;DHT22;4979;51.014;6.678;2023-02-01T01:10:09;6.00;99.90
9881;DHT22;4979;51.014;6.678;2023-02-01T01:12:35;6.00;99.90
9881;DHT22;4979;51.014;6.678;2023-02-01T01:15:00;5.90;99.90
9881;DHT22;4979;51.014;6.678;2023-02-01T01:17:26;5.80;99.90
9881;DHT22;4979;51.014;6.678;2023-02-01T01:19:51;5.80;99.90
9881;DHT22;4979;51.014;6.678;2023-02-01T01:22:17;5.70;99.90
9881;DHT22;4979;51.014;6.678;2023-02-01T01:24:43;5.60;99.90
9881;DHT22;4979;51.014;6.678;2023-02-01T01:27:09;5.60;99.90
9881;DHT22;4979;51.014;6.678;2023-02-01T01:29:34;5.60;99.90
9881;DHT22;4979;51.014;6.678;2023-02-01T01:32:00;5.50;99.90
9881;DHT22;4979;51.014;6.678;2023-02-01T01:34:26;5.50;99.90
9881;DHT22;4979;51.014;6.678;2023-02-01T01:36:51;5.50;99.90
9881;DHT22;4979;51.014;6.678;2023-02-01T01:39:17;5.40;99.90
9881;DHT22;4979;51.014;6.678;2023-02-01T01:41:42;5.40;99.90
9881;DHT22;4979;51.014;6.678;2023-02-01T01:47:12;5.40;99.90
9881;DHT22;4979;51.014;6.678;2023-02-01T01:49:39;5.40;99.90
9881;DHT22;4979;51.014;6.678;2023-02-01T01:52:05;5.40;99.90
9881;DHT22;4979;51.014;6.678;2023-02-01T01:54:38;5.30;99.90
9881;DHT22;4979;51.014;6.678;2023-02-01T01:57:10;5.30;99.90
9881;DHT22;4979;51.014;6.678;2023-02-01T01:59:38;5.40;99.90
9881;DHT22;4979;51.014;6.678;2023-02-01T02:02:05;5.40;99.90
9881;DHT22;4979;51.014;6.678;2023-02-01T02:04:32;5.30;99.90
9881;DHT22;4979;51.014;6.678;2023-02-01T02:07:05;5.30;99.90
9881;DHT22;4979;51.014;6.678;2023-02-01T02:09:33;5.40;99.90
9881;DHT22;4979;51.014;6.678;2023-02-01T02:11:59;5.50;99.90
9881;DHT22;4979;51.014;6.678;2023-02-01T02:14:25;5.50;99.90
9881;DHT22;4979;51.014;6.678;2023-02-01T02:25:26;5.60;99.90
9881;DHT22;4979;51.014;6.678;2023-02-01T02:38:39;5.60;99.90
9881;DHT22;4979;51.014;6.678;2023-02-01T02:47:25;5.80;99.90
9881;DHT22;4979;51.014;6.678;2023-02-01T02:49:58;5.80;99.90
9881;DHT22;4979;51.014;6.678;2023-02-01T02:52:51;5.80;99.90
9881;DHT22;4979;51.014;6.678;2023-02-01T02:55:37;5.70;99.90
9881;DHT22;4979;51.014;6.678;2023-02-01T02:58:05;5.70;99.90
9881;DHT22;4979;51.014;6.678;2023-02-01T03:00:51;5.80;99.90
9881;DHT22;4979;51.014;6.678;2023-02-01T03:03:40;5.80;99.90
9881;DHT22;4979;51.014;6.678;2023-02-01T03:06:24;5.80;99.90
9881;DHT22;4979;51.014;6.678;2023-02-01T03:08:50;5.80;99.90
9881;DHT22;4979;51.014;6.678;2023-02-01T03:11:20;5.80;99.90
9881;DHT22;4979;51.014;6.678;2023-02-01T03:13:52;5.80;99.90
9881;DHT22;4979;51.014;6.678;2023-02-01T03:16:25;5.70;99.90
9881;DHT22;4979;51.014;6.678;2023-02-01T03:19:41;5.80;99.90
9881;DHT22;4979;51.014;6.678;2023-02-01T03:26:45;5.80;99.90
9881;DHT22;4979;51.014;6.678;2023-02-01T03:29:16;5.90;99.90
9881;DHT22;4979;51.014;6.678;2023-02-01T03:31:43;5.90;99.90
9881;DHT22;4979;51.014;6.678;2023-02-01T03:34:11;5.80;99.90
9881;DHT22;4979;51.014;6.678;2023-02-01T03:36:50;5.70;99.90
9881;DHT22;4979;51.014;6.678;2023-02-01T03:41:57;5.70;99.90
9881;DHT22;4979;51.014;6.678;2023-02-01T03:47:20;5.70;99.90
9881;DHT22;4979;51.014;6.678;2023-02-01T03:49:50;5.60;99.90
9881;DHT22;4979;51.014;6.678;2023-02-01T03:52:35;5.80;99.90
9881;DHT22;4979;51.014;6.678;2023-02-01T03:55:04;5.70;99.90
9881;DHT22;4979;51.014;6.678;2023-02-01T03:57:34;5.80;99.90
9881;DHT22;4979;51.014;6.678;2023-02-01T04:00:22;5.70;99.90
9881;DHT22;4979;51.014;6.678;2023-02-01T04:02:49;5.70;99.90
9881;DHT22;4979;51.014;6.678;2023-02-01T04:05:14;5.70;99.90
9881;DHT22;4979;51.014;6.678;2023-02-01T04:07:40;5.70;99.90
9881;DHT22;4979;51.014;6.678;2023-02-01T04:10:07;5.80;99.90
9881;DHT22;4979;51.014;6.678;2023-02-01T04:12:32;5.80;99.90
9881;DHT22;4979;51.014;6.678;2023-02-01T04:14:58;5.70;99.90
9881;DHT22;4979;51.014;6.678;2023-02-01T04:17:24;5.70;99.90
9881;DHT22;4979;51.014;6.678;2023-02-01T04:19:49;5.70;99.90
9881;DHT22;4979;51.014;6.678;2023-02-01T04:22:15;5.70;99.90
9881;DHT22;4979;51.014;6.678;2023-02-01T04:24:41;5.70;99.90
9881;DHT22;4979;51.014;6.678;2023-02-01T04:27:06;5.70;99.90
9881;DHT22;4979;51.014;6.678;2023-02-01T04:29:32;5.80;99.90
9881;DHT22;4979;51.014;6.678;2023-02-01T04:31:57;5.80;99.90
9881;DHT22;4979;51.014;6.678;2023-02-01T04:34:23;5.70;99.90
9881;DHT22;4979;51.014;6.678;2023-02-01T04:36:50;5.70;99.90
9881;DHT22;4979;51.014;6.678;2023-02-01T04:39:16;5.70;99.90
9881;DHT22;4979;51.014;6.678;2023-02-01T04:41:41;5.70;99.90
9881;DHT22;4979;51.014;6.678;2023-02-01T04:44:13;5.70;99.90
9881;DHT22;4979;51.014;6.678;2023-02-01T04:46:39;5.60;99.90
9881;DHT22;4979;51.014;6.678;2023-02-01T04:49:04;5.60;99.90
9881;DHT22;4979;51.014;6.678;2023-02-01T04:51:30;5.60;99.90
9881;DHT22;4979;51.014;6.678;2023-02-01T04:53:55;5.50;99.90
9881;DHT22;4979;51.014;6.678;2023-02-01T04:56:21;5.50;99.90
9881;DHT22;4979;51.014;6.678;2023-02-01T04:58:47;5.50;99.90
9881;DHT22;4979;51.014;6.678;2023-02-01T05:01:12;5.50;99.90
9881;DHT22;4979;51.014;6.678;2023-02-01T05:03:38;5.50;99.90
9881;DHT22;4979;51.014;6.678;2023-02-01T05:06:04;5.40;99.90
9881;DHT22;4979;51.014;6.678;2023-02-01T05:08:30;5.40;99.90
9881;DHT22;4979;51.014;6.678;2023-02-01T05:10:56;5.50;99.90
9881;DHT22;4979;51.014;6.678;2023-02-01T05:13:22;5.40;99.90
9881;DHT22;4979;51.014;6.678;2023-02-01T05:16:06;5.40;99.90
9881;DHT22;4979;51.014;6.678;2023-02-01T05:18:32;5.40;99.90
9881;DHT22;4979;51.014;6.678;2023-02-01T05:20:57;5.40;99.90
9881;DHT22;4979;51.014;6.678;2023-02-01T05:23:23;5.40;99.90
9881;DHT22;4979;51.014;6.678;2023-02-01T05:25:48;5.30;99.90
9881;DHT22;4979;51.014;6.678;2023-02-01T05:28:14;5.30;99.90
9881;DHT22;4979;51.014;6.678;2023-02-01T05:30:39;5.20;99.90
9881;DHT22;4979;51.014;6.678;2023-02-01T05:33:05;5.30;99.90
9881;DHT22;4979;51.014;6.678;2023-02-01T05:35:31;5.20;99.90
9881;DHT22;4979;51.014;6.678;2023-02-01T05:37:56;5.20;99.90
9881;DHT22;4979;51.014;6.678;2023-02-01T05:40:22;5.20;99.90
9881;DHT22;4979;51.014;6.678;2023-02-01T05:42:48;5.20;99.90
9881;DHT22;4979;51.014;6.678;2023-02-01T05:45:14;5.20;99.90
9881;DHT22;4979;51.014;6.678;2023-02-01T05:47:39;5.20;99.90
9881;DHT22;4979;51.014;6.678;2023-02-01T05:50:05;5.10;99.90
9881;DHT22;4979;51.014;6.678;2023-02-01T05:52:31;5.10;99.90
9881;DHT22;4979;51.014;6.678;2023-02-01T05:54:57;5.10;99.90
9881;DHT22;4979;51.014;6.678;2023-02-01T05:57:23;5.20;99.90
9881;DHT22;4979;51.014;6.678;2023-02-01T05:59:48;5.10;99.90
9881;DHT22;4979;51.014;6.678;2023-02-01T06:02:15;5.10;99.90
9881;DHT22;4979;51.014;6.678;2023-02-01T06:04:41;5.10;99.90
9881;DHT22;4979;51.014;6.678;2023-02-01T06:07:08;5.10;99.90
9881;DHT22;4979;51.014;6.678;2023-02-01T06:09:35;5.00;99.90
9881;DHT22;4979;51.014;6.678;2023-02-01T06:12:00;5.10;99.90
9881;DHT22;4979;51.014;6.678;2023-02-01T06:14:26;5.00;99.90
9881;DHT22;4979;51.014;6.678;2023-02-01T06:16:53;5.00;99.90
9881;DHT22;4979;51.014;6.678;2023-02-01T06:19:19;5.00;99.90
9881;DHT22;4979;51.014;6.678;2023-02-01T06:21:44;5.00;99.90
9881;DHT22;4979;51.014;6.678;2023-02-01T06:24:11;5.00;99.90
9881;DHT22;4979;51.014;6.678;2023-02-01T06:26:36;4.90;99.90
9881;DHT22;4979;51.014;6.678;2023-02-01T06:29:02;4.80;99.90
9881;DHT22;4979;51.014;6.678;2023-02-01T06:31:28;4.90;99.90
9881;DHT22;4979;51.014;6.678;2023-02-01T06:33:53;4.80;99.90
9881;DHT22;4979;51.014;6.678;2023-02-01T06:36:19;4.90;99.90
9881;DHT22;4979;51.014;6.678;2023-02-01T06:38:47;4.80;99.90
9881;DHT22;4979;51.014;6.678;2023-02-01T06:41:14;4.90;99.90
9881;DHT22;4979;51.014;6.678;2023-02-01T06:43:39;4.90;99.90
9881;DHT22;4979;51.014;6.678;2023-02-01T06:46:07;4.90;99.90
9881;DHT22;4979;51.014;6.678;2023-02-01T06:48:33;5.00;99.90
9881;DHT22;4979;51.014;6.678;2023-02-01T06:50:59;5.00;99.90
9881;DHT22;4979;51.014;6.678;2023-02-01T06:53:25;5.00;99.90
9881;DHT22;4979;51.014;6.678;2023-02-01T06:55:56;5.00;99.90
9881;DHT22;4979;51.014;6.678;2023-02-01T06:58:22;5.00;99.90
9881;DHT22;4979;51.014;6.678;2023-02-01T07:00:48;5.00;99.90
9881;DHT22;4979;51.014;6.678;2023-02-01T07:03:14;5.00;99.90
9881;DHT22;4979;51.014;6.678;2023-02-01T07:05:40;5.10;99.90
9881;DHT22;4979;51.014;6.678;2023-02-01T07:08:05;5.10;99.90
9881;DHT22;4979;51.014;6.678;2023-02-01T07:10:31;5.00;99.90
9881;DHT22;4979;51.014;6.678;2023-02-01T07:12:57;5.10;99.90
9881;DHT22;4979;51.014;6.678;2023-02-01T07:15:23;5.10;99.90
9881;DHT22;4979;51.014;6.678;2023-02-01T07:17:48;5.20;99.90
9881;DHT22;4979;51.014;6.678;2023-02-01T07:20:15;5.20;99.90
9881;DHT22;4979;51.014;6.678;2023-02-01T07:22:41;5.20;99.90
9881;DHT22;4979;51.014;6.678;2023-02-01T07:25:07;5.20;99.90
9881;DHT22;4979;51.014;6.678;2023-02-01T07:27:36;5.20;99.90
9881;DHT22;4979;51.014;6.678;2023-02-01T07:30:03;5.30;99.90
9881;DHT22;4979;51.014;6.678;2023-02-01T07:32:29;5.30;99.90
9881;DHT22;4979;51.014;6.678;2023-02-01T07:34:54;5.20;99.90
9881;DHT22;4979;51.014;6.678;2023-02-01T07:37:20;5.20;99.90
9881;DHT22;4979;51.014;6.678;2023-02-01T07:39:45;5.30;99.90
9881;DHT22;4979;51.014;6.678;2023-02-01T07:42:11;5.30;99.90
9881;DHT22;4979;51.014;6.678;2023-02-01T07:44:37;5.30;99.90
9881;DHT22;4979;51.014;6.678;2023-02-01T07:47:02;5.20;99.90
9881;DHT22;4979;51.014;6.678;2023-02-01T07:49:28;5.20;99.90
9881;DHT22;4979;51.014;6.678;2023-02-01T07:51:53;5.30;99.90
9881;DHT22;4979;51.014;6.678;2023-02-01T07:54:19;5.30;99.90
9881;DHT22;4979;51.014;6.678;2023-02-01T07:56:45;5.20;99.90
9881;DHT22;4979;51.014;6.678;2023-02-01T07:59:10;5.40;99.90
9881;DHT22;4979;51.014;6.678;2023-02-01T08:01:37;5.30;99.90
9881;DHT22;4979;51.014;6.678;2023-02-01T08:04:03;5.30;99.90
9881;DHT22;4979;51.014;6.678;2023-02-01T08:06:31;5.30;99.90
9881;DHT22;4979;51.014;6.678;2023-02-01T08:08:57;5.40;99.90
9881;DHT22;4979;51.014;6.678;2023-02-01T08:11:24;5.40;99.90
9881;DHT22;4979;51.014;6.678;2023-02-01T08:13:51;5.30;99.90
9881;DHT22;4979;51.014;6.678;2023-02-01T08:16:18;5.40;99.90
9881;DHT22;4979;51.014;6.678;2023-02-01T08:18:45;5.40;99.90
9881;DHT22;4979;51.014;6.678;2023-02-01T08:23:39;5.40;99.90
9881;DHT22;4979;51.014;6.678;2023-02-01T08:28:31;5.50;99.90
9881;DHT22;4979;51.014;6.678;2023-02-01T08:30:57;5.40;99.90
9881;DHT22;4979;51.014;6.678;2023-02-01T08:33:22;5.40;99.90
9881;DHT22;4979;51.014;6.678;2023-02-01T08:35:48;5.50;99.90
9881;DHT22;4979;51.014;6.678;2023-02-01T08:38:13;5.50;99.90
9881;DHT22;4979;51.014;6.678;2023-02-01T08:40:39;5.50;99.90
9881;DHT22;4979;51.014;6.678;2023-02-01T08:43:07;5.50;99.90
9881;DHT22;4979;51.014;6.678;2023-02-01T08:45:32;5.60;99.90
9881;DHT22;4979;51.014;6.678;2023-02-01T08:47:59;5.60;99.90
9881;DHT22;4979;51.014;6.678;2023-02-01T08:50:25;5.60;99.90
9881;DHT22;4979;51.014;6.678;2023-02-01T08:52:52;5.70;99.90
9881;DHT22;4979;51.014;6.678;2023-02-01T08:55:18;5.80;99.90
9881;DHT22;4979;51.014;6.678;2023-02-01T08:57:44;5.80;99.90
9881;DHT22;4979;51.014;6.678;2023-02-01T09:00:15;5.70;99.90
9881;DHT22;4979;51.014;6.678;2023-02-01T09:02:41;5.80;99.90
9881;DHT22;4979;51.014;6.678;2023-02-01T09:05:18;5.90;99.90
9881;DHT22;4979;51.014;6.678;2023-02-01T09:07:47;5.90;99.90
9881;DHT22;4979;51.014;6.678;2023-02-01T09:10:12;6.00;99.90
9881;DHT22;4979;51.014;6.678;2023-02-01T09:12:38;6.10;99.90
9881;DHT22;4979;51.014;6.678;2023-02-01T09:15:04;6.10;99.90
9881;DHT22;4979;51.014;6.678;2023-02-01T09:17:32;6.10;99.90
9881;DHT22;4979;51.014;6.678;2023-02-01T09:19:57;6.00;99.90
9881;DHT22;4979;51.014;6.678;2023-02-01T09:22:23;6.00;99.90
9881;DHT22;4979;51.014;6.678;2023-02-01T09:24:49;6.00;99.90
9881;DHT22;4979;51.014;6.678;2023-02-01T09:27:15;6.00;99.90
9881;DHT22;4979;51.014;6.678;2023-02-01T09:29:40;6.10;99.90
9881;DHT22;4979;51.014;6.678;2023-02-01T09:32:06;6.10;99.90
9881;DHT22;4979;51.014;6.678;2023-02-01T09:34:33;6.00;99.90
9881;DHT22;4979;51.014;6.678;2023-02-01T09:36:58;6.10;99.90
9881;DHT22;4979;51.014;6.678;2023-02-01T09:39:24;6.20;99.90
9881;DHT22;4979;51.014;6.678;2023-02-01T09:46:47;6.30;99.90
9881;DHT22;4979;51.014;6.678;2023-02-01T09:49:18;6.40;99.90
9881;DHT22;4979;51.014;6.678;2023-02-01T09:51:47;6.40;99.90
9881;DHT22;4979;51.014;6.678;2023-02-01T09:56:49;6.30;99.90
9881;DHT22;4979;51.014;6.678;2023-02-01T09:59:41;6.30;99.90
9881;DHT22;4979;51.014;6.678;2023-02-01T10:02:26;6.30;99.90
9881;DHT22;4979;51.014;6.678;2023-02-01T10:04:58;6.40;99.90
9881;DHT22;4979;51.014;6.678;2023-02-01T10:07:48;6.50;99.90
9881;DHT22;4979;51.014;6.678;2023-02-01T10:10:27;6.60;99.90
9881;DHT22;4979;51.014;6.678;2023-02-01T10:15:30;6.70;99.90
9881;DHT22;4979;51.014;6.678;2023-02-01T10:26:22;7.20;99.90
9881;DHT22;4979;51.014;6.678;2023-02-01T10:28:53;7.20;99.90
9881;DHT22;4979;51.014;6.678;2023-02-01T10:31:23;7.30;99.90
9881;DHT22;4979;51.014;6.678;2023-02-01T10:33:52;7.20;99.90
9881;DHT22;4979;51.014;6.678;2023-02-01T10:36:29;7.30;99.90
9881;DHT22;4979;51.014;6.678;2023-02-01T10:39:00;7.30;99.90
9881;DHT22;4979;51.014;6.678;2023-02-01T10:41:35;7.30;99.90
9881;DHT22;4979;51.014;6.678;2023-02-01T10:44:04;7.30;99.90
9881;DHT22;4979;51.014;6.678;2023-02-01T10:46:31;7.40;99.90
9881;DHT22;4979;51.014;6.678;2023-02-01T10:49:00;7.50;99.90
9881;DHT22;4979;51.014;6.678;2023-02-01T10:54:31;7.80;99.90
9881;DHT22;4979;51.014;6.678;2023-02-01T10:56:57;7.60;99.90
9881;DHT22;4979;51.014;6.678;2023-02-01T10:59:28;7.60;99.90
9881;DHT22;4979;51.014;6.678;2023-02-01T11:02:07;7.80;99.90
9881;DHT22;4979;51.014;6.678;2023-02-01T11:04:38;7.70;99.90
9881;DHT22;4979;51.014;6.678;2023-02-01T11:07:07;7.60;99.90
9881;DHT22;4979;51.014;6.678;2023-02-01T11:09:41;7.60;99.90
9881;DHT22;4979;51.014;6.678;2023-02-01T11:12:25;7.60;99.90
9881;DHT22;4979;51.014;6.678;2023-02-01T11:14:58;7.50;99.90
9881;DHT22;4979;51.014;6.678;2023-02-01T11:17:28;7.60;99.90
9881;DHT22;4979;51.014;6.678;2023-02-01T11:20:00;7.60;99.90
9881;DHT22;4979;51.014;6.678;2023-02-01T11:22:26;7.80;99.90
9881;DHT22;4979;51.014;6.678;2023-02-01T11:24:53;8.00;99.90
9881;DHT22;4979;51.014;6.678;2023-02-01T11:27:21;8.00;99.90
9881;DHT22;4979;51.014;6.678;2023-02-01T11:29:51;7.80;99.90
9881;DHT22;4979;51.014;6.678;2023-02-01T11:32:19;7.80;99.90
9881;DHT22;4979;51.014;6.678;2023-02-01T11:34:51;7.90;99.90
9881;DHT22;4979;51.014;6.678;2023-02-01T11:37:23;8.00;99.90
9881;DHT22;4979;51.014;6.678;2023-02-01T11:39:58;7.90;99.90
9881;DHT22;4979;51.014;6.678;2023-02-01T11:42:26;7.90;99.90
9881;DHT22;4979;51.014;6.678;2023-02-01T11:45:40;7.90;99.90
9881;DHT22;4979;51.014;6.678;2023-02-01T11:48:00;7.90;99.90
9881;DHT22;4979;51.014;6.678;2023-02-01T12:01:56;7.60;99.90
9881;DHT22;4979;51.014;6.678;2023-02-01T12:07:46;7.60;99.90
9881;DHT22;4979;51.014;6.678;2023-02-01T12:10:47;7.60;99.90
9881;DHT22;4979;51.014;6.678;2023-02-01T12:19:34;7.70;99.90
9881;DHT22;4979;51.014;6.678;2023-02-01T12:25:05;7.70;99.90
9881;DHT22;4979;51.014;6.678;2023-02-01T12:30:40;7.90;99.90
9881;DHT22;4979;51.014;6.678;2023-02-01T12:38:39;8.00;99.90
9881;DHT22;4979;51.014;6.678;2023-02-01T12:41:19;7.80;99.90
9881;DHT22;4979;51.014;6.678;2023-02-01T12:44:24;7.80;99.90
9881;DHT22;4979;51.014;6.678;2023-02-01T12:49:33;7.70;99.90
9881;DHT22;4979;51.014;6.678;2023-02-01T12:52:04;7.70;99.90
9881;DHT22;4979;51.014;6.678;2023-02-01T12:57:35;7.60;99.90
9881;DHT22;4979;51.014;6.678;2023-02-01T13:00:43;7.60;99.90
9881;DHT22;4979;51.014;6.678;2023-02-01T13:05:49;7.60;99.90
9881;DHT22;4979;51.014;6.678;2023-02-01T13:08:55;7.60;99.90
9881;DHT22;4979;51.014;6.678;2023-02-01T13:11:29;7.60;99.90
9881;DHT22;4979;51.014;6.678;2023-02-01T13:16:47;7.60;99.90
9881;DHT22;4979;51.014;6.678;2023-02-01T13:19:34;7.60;99.90
9881;DHT22;4979;51.014;6.678;2023-02-01T13:22:06;7.60;99.90
9881;DHT22;4979;51.014;6.678;2023-02-01T13:24:54;7.60;99.90
9881;DHT22;4979;51.014;6.678;2023-02-01T13:27:21;7.60;99.90
9881;DHT22;4979;51.014;6.678;2023-02-01T13:29:57;7.60;99.90
9881;DHT22;4979;51.014;6.678;2023-02-01T13:33:03;7.60;99.90
9881;DHT22;4979;51.014;6.678;2023-02-01T13:35:59;7.60;99.90
9881;DHT22;4979;51.014;6.678;2023-02-01T13:41:34;7.60;99.90
9881;DHT22;4979;51.014;6.678;2023-02-01T13:44:12;7.60;99.90
9881;DHT22;4979;51.014;6.678;2023-02-01T13:46:45;7.60;99.90
9881;DHT22;4979;51.014;6.678;2023-02-01T13:49:28;7.60;99.90
9881;DHT22;4979;51.014;6.678;2023-02-01T13:51:56;7.60;99.90
9881;DHT22;4979;51.014;6.678;2023-02-01T13:54:33;7.60;99.90
9881;DHT22;4979;51.014;6.678;2023-02-01T13:57:00;7.60;99.90
9881;DHT22;4979;51.014;6.678;2023-02-01T14:05:04;7.70;99.90
9881;DHT22;4979;51.014;6.678;2023-02-01T14:07:33;7.70;99.90
9881;DHT22;4979;51.014;6.678;2023-02-01T14:09:58;7.70;99.90
9881;DHT22;4979;51.014;6.678;2023-02-01T14:12:47;7.70;99.90
9881;DHT22;4979;51.014;6.678;2023-02-01T14:15:25;7.70;99.90
9881;DHT22;4979;51.014;6.678;2023-02-01T14:17:51;7.80;99.90
9881;DHT22;4979;51.014;6.678;2023-02-01T14:20:46;7.80;99.90
9881;DHT22;4979;51.014;6.678;2023-02-01T14:23:17;7.80;99.90
9881;DHT22;4979;51.014;6.678;2023-02-01T14:25:44;7.80;99.90
9881;DHT22;4979;51.014;6.678;2023-02-01T14:28:12;7.80;99.90
9881;DHT22;4979;51.014;6.678;2023-02-01T14:30:43;7.80;99.90
9881;DHT22;4979;51.014;6.678;2023-02-01T14:33:18;7.80;99.90
9881;DHT22;4979;51.014;6.678;2023-02-01T14:35:57;7.90;99.90
9881;DHT22;4979;51.014;6.678;2023-02-01T14:38:25;7.80;99.90
9881;DHT22;4979;51.014;6.678;2023-02-01T14:40:51;7.80;99.90
9881;DHT22;4979;51.014;6.678;2023-02-01T14:43:19;7.80;99.90
9881;DHT22;4979;51.014;6.678;2023-02-01T14:46:03;7.80;99.90
9881;DHT22;4979;51.014;6.678;2023-02-01T14:50:57;7.80;99.90
9881;DHT22;4979;51.014;6.678;2023-02-01T14:53:32;7.80;99.90
9881;DHT22;4979;51.014;6.678;2023-02-01T14:58:42;7.80;99.90
9881;DHT22;4979;51.014;6.678;2023-02-01T15:07:09;7.80;99.90
9881;DHT22;4979;51.014;6.678;2023-02-01T15:09:32;7.80;99.90
9881;DHT22;4979;51.014;6.678;2023-02-01T15:12:08;7.80;99.90
9881;DHT22;4979;51.014;6.678;2023-02-01T15:14:45;8.20;99.90
9881;DHT22;4979;51.014;6.678;2023-02-01T15:17:30;7.70;99.90
9881;DHT22;4979;51.014;6.678;2023-02-01T15:20:21;7.70;99.90
9881;DHT22;4979;51.014;6.678;2023-02-01T15:23:00;7.70;99.90
9881;DHT22;4979;51.014;6.678;2023-02-01T15:25:36;7.70;99.90
9881;DHT22;4979;51.014;6.678;2023-02-01T15:28:04;7.70;99.90
9881;DHT22;4979;51.014;6.678;2023-02-01T15:30:33;7.70;99.90
9881;DHT22;4979;51.014;6.678;2023-02-01T15:33:13;7.70;99.90
9881;DHT22;4979;51.014;6.678;2023-02-01T15:35:49;7.70;99.90
9881;DHT22;4979;51.014;6.678;2023-02-01T15:46:31;7.70;99.90
9881;DHT22;4979;51.014;6.678;2023-02-01T15:48:57;7.70;99.90
9881;DHT22;4979;51.014;6.678;2023-02-01T15:51:26;7.70;99.90
9881;DHT22;4979;51.014;6.678;2023-02-01T15:54:04;7.70;99.90
9881;DHT22;4979;51.014;6.678;2023-02-01T15:56:35;7.70;99.90
9881;DHT22;4979;51.014;6.678;2023-02-01T15:59:03;7.70;99.90
9881;DHT22;4979;51.014;6.678;2023-02-01T16:01:30;7.70;99.90
9881;DHT22;4979;51.014;6.678;2023-02-01T16:06:36;7.70;99.90
9881;DHT22;4979;51.014;6.678;2023-02-01T16:09:15;7.70;99.90
9881;DHT22;4979;51.014;6.678;2023-02-01T16:11:52;7.70;99.90
9881;DHT22;4979;51.014;6.678;2023-02-01T16:14:19;7.60;99.90
9881;DHT22;4979;51.014;6.678;2023-02-01T16:16:45;7.60;99.90
9881;DHT22;4979;51.014;6.678;2023-02-01T16:19:10;7.50;99.90
9881;DHT22;4979;51.014;6.678;2023-02-01T16:21:36;7.50;99.90
9881;DHT22;4979;51.014;6.678;2023-02-01T16:24:02;7.40;99.90
9881;DHT22;4979;51.014;6.678;2023-02-01T16:26:30;7.40;99.90
9881;DHT22;4979;51.014;6.678;2023-02-01T16:28:57;7.30;99.90
9881;DHT22;4979;51.014;6.678;2023-02-01T16:31:28;7.30;99.90
9881;DHT22;4979;51.014;6.678;2023-02-01T16:33:54;7.20;99.90
9881;DHT22;4979;51.014;6.678;2023-02-01T16:36:20;7.30;99.90
9881;DHT22;4979;51.014;6.678;2023-02-01T16:38:46;7.30;99.90
9881;DHT22;4979;51.014;6.678;2023-02-01T16:41:16;7.30;99.90
9881;DHT22;4979;51.014;6.678;2023-02-01T16:43:42;7.30;99.90
9881;DHT22;4979;51.014;6.678;2023-02-01T16:46:19;7.30;99.90
9881;DHT22;4979;51.014;6.678;2023-02-01T16:48:51;7.30;99.90
9881;DHT22;4979;51.014;6.678;2023-02-01T16:51:18;7.30;99.90
9881;DHT22;4979;51.014;6.678;2023-02-01T16:53:45;7.30;99.90
9881;DHT22;4979;51.014;6.678;2023-02-01T16:56:30;7.30;99.90
9881;DHT22;4979;51.014;6.678;2023-02-01T16:58:56;7.30;99.90
9881;DHT22;4979;51.014;6.678;2023-02-01T17:01:22;7.30;99.90
9881;DHT22;4979;51.014;6.678;2023-02-01T17:03:47;7.30;99.90
9881;DHT22;4979;51.014;6.678;2023-02-01T17:06:17;7.30;99.90
9881;DHT22;4979;51.014;6.678;2023-02-01T17:08:46;7.20;99.90
9881;DHT22;4979;51.014;6.678;2023-02-01T17:11:13;7.20;99.90
9881;DHT22;4979;51.014;6.678;2023-02-01T17:13:39;7.20;99.90
9881;DHT22;4979;51.014;6.678;2023-02-01T17:18:47;7.20;99.90
9881;DHT22;4979;51.014;6.678;2023-02-01T17:21:15;7.20;99.90
9881;DHT22;4979;51.014;6.678;2023-02-01T17:23:41;7.30;99.90
9881;DHT22;4979;51.014;6.678;2023-02-01T17:26:09;7.30;99.90
9881;DHT22;4979;51.014;6.678;2023-02-01T17:28:35;7.20;99.90
9881;DHT22;4979;51.014;6.678;2023-02-01T17:31:00;7.20;99.90
9881;DHT22;4979;51.014;6.678;2023-02-01T17:33:30;7.20;99.90
9881;DHT22;4979;51.014;6.678;2023-02-01T17:35:56;7.20;99.90
9881;DHT22;4979;51.014;6.678;2023-02-01T17:38:23;7.20;99.90
9881;DHT22;4979;51.014;6.678;2023-02-01T17:40:50;7.20;99.90
9881;DHT22;4979;51.014;6.678;2023-02-01T17:43:20;7.30;99.90
9881;DHT22;4979;51.014;6.678;2023-02-01T17:45:49;7.20;99.90
9881;DHT22;4979;51.014;6.678;2023-02-01T17:48:18;7.20;99.90
9881;DHT22;4979;51.014;6.678;2023-02-01T17:50:45;7.20;99.90
9881;DHT22;4979;51.014;6.678;2023-02-01T17:53:12;7.20;99.90
9881;DHT22;4979;51.014;6.678;2023-02-01T17:55:42;7.20;99.90
9881;DHT22;4979;51.014;6.678;2023-02-01T17:58:10;7.20;99.90
9881;DHT22;4979;51.014;6.678;2023-02-01T18:00:37;7.20;99.90
9881;DHT22;4979;51.014;6.678;2023-02-01T18:03:02;7.20;99.90
9881;DHT22;4979;51.014;6.678;2023-02-01T18:05:41;7.20;99.90
9881;DHT22;4979;51.014;6.678;2023-02-01T18:08:08;7.10;99.90
9881;DHT22;4979;51.014;6.678;2023-02-01T18:10:34;7.20;99.90
9881;DHT22;4979;51.014;6.678;2023-02-01T18:13:01;7.20;99.90
9881;DHT22;4979;51.014;6.678;2023-02-01T18:15:26;7.10;99.90
9881;DHT22;4979;51.014;6.678;2023-02-01T18:17:52;7.10;99.90
9881;DHT22;4979;51.014;6.678;2023-02-01T18:20:20;7.20;99.90
9881;DHT22;4979;51.014;6.678;2023-02-01T18:22:46;7.10;99.90
9881;DHT22;4979;51.014;6.678;2023-02-01T18:25:23;7.20;99.90
9881;DHT22;4979;51.014;6.678;2023-02-01T18:27:51;7.20;99.90
9881;DHT22;4979;51.014;6.678;2023-02-01T18:30:18;7.10;99.90
9881;DHT22;4979;51.014;6.678;2023-02-01T18:32:46;7.20;99.90
9881;DHT22;4979;51.014;6.678;2023-02-01T18:35:27;7.20;99.90
9881;DHT22;4979;51.014;6.678;2023-02-01T18:37:53;7.20;99.90
9881;DHT22;4979;51.014;6.678;2023-02-01T18:40:26;7.20;99.90
9881;DHT22;4979;51.014;6.678;2023-02-01T18:42:52;7.20;99.90
9881;DHT22;4979;51.014;6.678;2023-02-01T18:45:22;7.20;99.90
9881;DHT22;4979;51.014;6.678;2023-02-01T18:47:49;7.20;99.90
9881;DHT22;4979;51.014;6.678;2023-02-01T18:50:18;7.20;99.90
9881;DHT22;4979;51.014;6.678;2023-02-01T18:52:44;7.20;99.90
9881;DHT22;4979;51.014;6.678;2023-02-01T18:55:10;7.20;99.90